createdAt,value
2022-09-28T00:01:14.985Z,9.07
2022-09-28T00:03:18.338Z,9.05
2022-09-28T00:05:21.733Z,9.04
2022-09-28T00:07:25.245Z,9.05
2022-09-28T00:09:28.766Z,9.06
2022-09-28T00:11:33.454Z,9.05
2022-09-28T00:13:36.902Z,9.06
2022-09-28T00:15:40.243Z,9.06
2022-09-28T00:17:45.937Z,9.07
2022-09-28T00:19:49.912Z,9.09
2022-09-28T00:21:53.204Z,9.11
2022-09-28T00:24:24.062Z,9.11
2022-09-28T00:26:31.535Z,9.12
2022-09-28T00:28:34.800Z,9.14
2022-09-28T00:30:38.218Z,9.15
2022-09-28T00:32:41.518Z,9.18
2022-09-28T00:34:48.945Z,9.18
2022-09-28T00:36:52.279Z,9.20
2022-09-28T00:38:56.612Z,9.21
2022-09-28T00:40:59.975Z,9.20
2022-09-28T00:43:18.805Z,9.21
2022-09-28T00:45:24.085Z,9.20
2022-09-28T00:47:38.418Z,9.18
2022-09-28T00:49:46.567Z,9.14
2022-09-28T00:51:51.312Z,9.14
2022-09-28T00:53:57.150Z,9.09
2022-09-28T00:56:04.278Z,9.07
2022-09-28T00:58:12.627Z,9.06
2022-09-28T01:00:16.717Z,9.04
2022-09-28T01:02:20.996Z,9.01
2022-09-28T01:04:28.040Z,9.00
2022-09-28T01:06:35.950Z,8.97
2022-09-28T01:08:41.358Z,8.95
2022-09-28T01:10:44.787Z,8.94
2022-09-28T01:12:49.188Z,8.92
2022-09-28T01:14:54.005Z,8.92
2022-09-28T01:17:07.686Z,8.92
2022-09-28T01:19:35.089Z,8.94
2022-09-28T01:21:51.185Z,8.95
2022-09-28T01:24:19.559Z,8.96
2022-09-28T01:26:54.597Z,8.98
2022-09-28T01:29:04.744Z,9.00
2022-09-28T01:31:13.758Z,9.00
2022-09-28T01:33:24.433Z,9.03
2022-09-28T01:35:33.625Z,9.01
2022-09-28T01:37:43.089Z,9.01
2022-09-28T01:39:50.174Z,9.03
2022-09-28T01:42:02.037Z,9.02
2022-09-28T01:44:08.858Z,9.03
2022-09-28T01:46:16.414Z,9.04
2022-09-28T01:48:25.842Z,9.06
2022-09-28T01:50:34.709Z,9.07
2022-09-28T01:52:45.753Z,9.06
2022-09-28T01:54:54.570Z,9.05
2022-09-28T01:57:05.765Z,9.05
2022-09-28T01:59:15.126Z,9.06
2022-09-28T02:01:23.710Z,9.05
2022-09-28T02:03:34.063Z,9.05
2022-09-28T02:05:40.009Z,9.05
2022-09-28T02:07:47.969Z,9.05
2022-09-28T02:09:57.312Z,9.04
2022-09-28T02:12:06.879Z,9.05
2022-09-28T02:14:13.290Z,9.01
2022-09-28T02:16:22.995Z,9.00
2022-09-28T02:18:26.925Z,8.97
2022-09-28T02:20:33.328Z,8.94
2022-09-28T02:22:44.312Z,8.93
2022-09-28T02:24:55.677Z,8.91
2022-09-28T02:27:10.377Z,8.91
2022-09-28T02:29:14.549Z,8.90
2022-09-28T02:31:18.774Z,8.89
2022-09-28T02:33:26.733Z,8.87
2022-09-28T02:35:31.070Z,8.87
2022-09-28T02:37:34.838Z,8.86
2022-09-28T02:39:38.651Z,8.87
2022-09-28T02:41:56.530Z,8.86
2022-09-28T02:44:12.380Z,8.85
2022-09-28T02:46:28.930Z,8.85
2022-09-28T02:49:20.520Z,8.85
2022-09-28T02:51:33.368Z,8.85
2022-09-28T02:54:06.308Z,8.86
2022-09-28T02:56:24.116Z,8.86
2022-09-28T02:58:40.164Z,8.83
2022-09-28T03:00:56.388Z,8.81
2022-09-28T03:03:05.821Z,8.81
2022-09-28T03:05:20.286Z,8.80
2022-09-28T03:07:26.566Z,8.77
2022-09-28T03:09:37.410Z,8.75
2022-09-28T03:11:48.092Z,8.74
2022-09-28T03:13:53.056Z,8.74
2022-09-28T03:16:15.671Z,8.76
2022-09-28T03:18:21.314Z,8.77
2022-09-28T03:20:25.371Z,8.78
2022-09-28T03:22:29.423Z,8.77
2022-09-28T03:24:33.430Z,8.76
2022-09-28T03:26:39.751Z,8.76
2022-09-28T03:28:44.406Z,8.74
2022-09-28T03:30:54.472Z,8.72
2022-09-28T03:33:01.037Z,8.68
2022-09-28T03:35:09.532Z,8.68
2022-09-28T03:37:13.141Z,8.66
2022-09-28T03:39:17.134Z,8.67
2022-09-28T03:41:20.804Z,8.68
2022-09-28T03:43:24.875Z,8.71
2022-09-28T03:45:30.361Z,8.73
2022-09-28T03:47:34.436Z,8.74
2022-09-28T03:49:39.777Z,8.75
2022-09-28T03:51:49.219Z,8.76
2022-09-28T03:53:52.699Z,8.79
2022-09-28T03:55:56.372Z,8.79
2022-09-28T03:58:00.290Z,8.81
2022-09-28T04:00:04.528Z,8.81
2022-09-28T04:02:17.277Z,8.80
2022-09-28T04:04:21.163Z,8.80
2022-09-28T04:06:26.824Z,8.80
2022-09-28T04:08:30.793Z,8.80
2022-09-28T04:10:35.334Z,8.81
2022-09-28T04:12:40.113Z,8.83
2022-09-28T04:14:44.094Z,8.83
2022-09-28T04:16:48.839Z,8.84
2022-09-28T04:18:53.085Z,8.83
2022-09-28T04:21:30.254Z,8.84
2022-09-28T04:23:42.159Z,8.83
2022-09-28T04:25:48.948Z,8.86
2022-09-28T04:28:09.749Z,8.86
2022-09-28T04:30:14.072Z,8.87
2022-09-28T04:32:21.887Z,8.87
2022-09-28T04:34:25.603Z,8.87
2022-09-28T04:36:30.896Z,8.86
2022-09-28T04:38:51.919Z,8.85
2022-09-28T04:40:59.153Z,8.83
2022-09-28T04:43:03.180Z,8.83
2022-09-28T04:45:08.091Z,8.83
2022-09-28T04:47:15.448Z,8.84
2022-09-28T04:49:38.574Z,8.84
2022-09-28T04:51:48.872Z,8.83
2022-09-28T04:53:52.700Z,8.83
2022-09-28T04:55:59.185Z,8.84
2022-09-28T04:58:05.529Z,8.84
2022-09-28T05:00:10.997Z,8.83
2022-09-28T05:02:17.311Z,8.79
2022-09-28T05:04:50.560Z,8.78
2022-09-28T05:07:28.215Z,8.76
2022-09-28T05:09:37.601Z,8.75
2022-09-28T05:11:42.375Z,8.72
2022-09-28T05:13:51.865Z,8.70
2022-09-28T05:16:01.737Z,8.66
2022-09-28T05:18:09.775Z,8.63
2022-09-28T05:20:22.096Z,8.62
2022-09-28T05:22:25.720Z,8.61
2022-09-28T05:24:33.710Z,8.60
2022-09-28T05:26:37.250Z,8.57
2022-09-28T05:28:41.349Z,8.56
2022-09-28T05:31:16.920Z,8.53
2022-09-28T05:33:34.979Z,8.51
2022-09-28T05:35:53.798Z,8.48
2022-09-28T05:38:04.232Z,8.44
2022-09-28T05:40:10.401Z,8.40
2022-09-28T05:42:15.232Z,8.37
2022-09-28T05:44:20.119Z,8.35
2022-09-28T05:46:25.047Z,8.34
2022-09-28T05:48:29.897Z,8.34
2022-09-28T05:50:33.994Z,8.34
2022-09-28T05:52:37.569Z,8.34
2022-09-28T05:54:41.399Z,8.34
2022-09-28T05:56:46.680Z,8.33
2022-09-28T05:58:50.375Z,8.34
2022-09-28T06:00:56.719Z,8.34
2022-09-28T06:03:06.608Z,8.34
2022-09-28T06:05:12.583Z,8.33
2022-09-28T06:07:16.367Z,8.31
2022-09-28T06:09:25.179Z,8.31
2022-09-28T06:11:38.435Z,8.29
2022-09-28T06:13:54.240Z,8.26
2022-09-28T06:15:57.832Z,8.24
2022-09-28T06:18:04.836Z,8.22
2022-09-28T06:20:13.205Z,8.19
2022-09-28T06:22:45.398Z,8.18
2022-09-28T06:24:50.390Z,8.17
2022-09-28T06:26:54.231Z,8.18
2022-09-28T06:29:00.886Z,8.18
2022-09-28T06:31:05.055Z,8.19
2022-09-28T06:33:14.548Z,8.18
2022-09-28T06:35:18.455Z,8.19
2022-09-28T06:37:22.479Z,8.20
2022-09-28T06:39:27.674Z,8.20
2022-09-28T06:41:32.002Z,8.19
2022-09-28T06:43:40.073Z,8.20
2022-09-28T06:45:55.716Z,8.22
2022-09-28T06:48:22.898Z,8.24
2022-09-28T06:50:27.906Z,8.29
2022-09-28T06:52:54.520Z,8.34
2022-09-28T06:55:12.219Z,8.36
2022-09-28T06:57:19.543Z,8.37
2022-09-28T06:59:24.461Z,8.37
2022-09-28T07:01:30.625Z,8.36
2022-09-28T07:03:42.788Z,8.37
2022-09-28T07:06:24.508Z,8.37
2022-09-28T07:09:03.129Z,8.40
2022-09-28T07:11:44.602Z,8.41
2022-09-28T07:14:15.151Z,8.42
2022-09-28T07:16:26.668Z,8.45
2022-09-28T07:18:35.270Z,8.48
2022-09-28T07:20:51.330Z,8.54
2022-09-28T07:23:04.629Z,8.59
2022-09-28T07:25:45.836Z,8.66
2022-09-28T07:28:20.231Z,8.69
2022-09-28T07:30:45.818Z,8.71
2022-09-28T07:32:54.169Z,8.72
2022-09-28T07:35:20.540Z,8.76
2022-09-28T07:37:27.423Z,8.79
2022-09-28T07:39:31.374Z,8.80
2022-09-28T07:41:34.073Z,8.84
2022-09-28T07:43:41.398Z,8.88
2022-09-28T07:45:45.671Z,8.94
2022-09-28T07:47:49.902Z,8.97
2022-09-28T07:50:14.044Z,9.01
2022-09-28T07:52:49.836Z,9.04
2022-09-28T07:55:07.308Z,9.07
2022-09-28T07:57:48.292Z,9.10
2022-09-28T08:00:02.517Z,9.14
2022-09-28T08:02:20.558Z,9.18
2022-09-28T08:04:25.484Z,9.27
2022-09-28T08:06:31.704Z,9.35
2022-09-28T08:08:37.284Z,9.41
2022-09-28T08:10:46.795Z,9.56
2022-09-28T08:13:02.093Z,9.73
2022-09-28T08:15:25.149Z,9.96
2022-09-28T08:17:32.494Z,10.16
2022-09-28T08:19:56.330Z,10.37
2022-09-28T08:22:00.089Z,10.46
2022-09-28T08:24:05.900Z,10.50
2022-09-28T08:26:15.206Z,10.54
2022-09-28T08:28:19.699Z,10.53
2022-09-28T08:30:24.944Z,10.51
2022-09-28T08:32:50.298Z,10.44
2022-09-28T08:35:12.377Z,10.41
2022-09-28T08:37:27.217Z,10.43
2022-09-28T08:39:50.895Z,10.52
2022-09-28T08:42:31.644Z,10.56
2022-09-28T08:45:00.662Z,10.60
2022-09-28T08:47:46.492Z,10.62
2022-09-28T08:50:08.694Z,10.67
2022-09-28T08:52:25.289Z,10.73
2022-09-28T08:54:49.214Z,10.78
2022-09-28T08:57:14.130Z,10.80
2022-09-28T08:59:21.117Z,10.81
2022-09-28T09:01:39.127Z,10.87
2022-09-28T09:03:50.443Z,10.97
2022-09-28T09:06:20.587Z,11.00
2022-09-28T09:08:43.182Z,11.00
2022-09-28T09:10:53.577Z,11.07
2022-09-28T09:13:25.422Z,11.24
2022-09-28T09:15:41.739Z,11.59
2022-09-28T09:18:11.092Z,11.89
2022-09-28T09:20:35.710Z,12.05
2022-09-28T09:22:59.401Z,12.05
2022-09-28T09:25:18.788Z,11.96
2022-09-28T09:27:48.751Z,11.89
2022-09-28T09:30:06.499Z,11.85
2022-09-28T09:32:27.834Z,11.80
2022-09-28T09:34:56.557Z,11.77
2022-09-28T09:37:28.138Z,11.71
2022-09-28T09:40:24.604Z,11.57
2022-09-28T09:43:04.233Z,11.49
2022-09-28T09:45:50.449Z,11.37
2022-09-28T09:48:20.411Z,11.29
2022-09-28T09:50:30.845Z,11.35
2022-09-28T09:52:47.362Z,11.41
2022-09-28T09:54:56.155Z,11.48
2022-09-28T09:57:22.681Z,11.65
2022-09-28T09:59:46.131Z,11.69
2022-09-28T10:02:02.976Z,11.71
2022-09-28T10:04:22.621Z,11.72
2022-09-28T10:06:32.293Z,11.75
2022-09-28T10:08:45.968Z,11.81
2022-09-28T10:10:54.570Z,11.87
2022-09-28T10:12:58.688Z,11.96
2022-09-28T10:15:07.786Z,12.00
2022-09-28T10:17:27.534Z,12.00
2022-09-28T10:19:58.326Z,12.01
2022-09-28T10:22:06.481Z,12.02
2022-09-28T10:24:20.106Z,12.02
2022-09-28T10:26:29.545Z,12.05
2022-09-28T10:28:41.440Z,12.12
2022-09-28T10:30:45.551Z,12.21
2022-09-28T10:32:52.934Z,12.18
2022-09-28T10:35:15.751Z,12.06
2022-09-28T10:37:21.279Z,12.04
2022-09-28T10:39:38.019Z,12.02
2022-09-28T10:41:51.554Z,12.00
2022-09-28T10:44:08.962Z,11.99
2022-09-28T10:46:41.946Z,11.96
2022-09-28T10:48:55.690Z,12.00
2022-09-28T10:51:06.653Z,12.01
2022-09-28T10:53:20.996Z,11.92
2022-09-28T10:56:03.358Z,11.86
2022-09-28T10:58:27.575Z,11.81
2022-09-28T11:00:39.531Z,11.77
2022-09-28T11:03:01.662Z,11.74
2022-09-28T11:05:09.472Z,11.80
2022-09-28T11:07:21.599Z,11.84
2022-09-28T11:09:31.103Z,11.89
2022-09-28T11:11:42.840Z,11.91
2022-09-28T11:13:49.803Z,11.92
2022-09-28T11:15:59.927Z,11.84
2022-09-28T11:18:29.703Z,11.85
2022-09-28T11:20:36.956Z,11.90
2022-09-28T11:22:45.155Z,12.01
2022-09-28T11:24:50.009Z,12.12
2022-09-28T11:26:56.963Z,12.24
2022-09-28T11:29:04.763Z,12.29
2022-09-28T11:31:28.153Z,12.33
2022-09-28T11:33:40.730Z,12.38
2022-09-28T11:36:19.499Z,12.36
2022-09-28T11:38:35.592Z,12.35
2022-09-28T11:41:17.957Z,12.37
2022-09-28T11:43:39.819Z,12.43
2022-09-28T11:45:56.080Z,12.47
2022-09-28T11:48:03.564Z,12.56
2022-09-28T11:50:24.170Z,12.59
2022-09-28T11:52:36.568Z,12.53
2022-09-28T11:54:45.604Z,12.48
2022-09-28T11:56:51.961Z,12.43
2022-09-28T11:59:00.277Z,12.40
2022-09-28T12:01:23.756Z,12.43
2022-09-28T12:03:52.564Z,12.44
2022-09-28T12:06:01.867Z,12.47
2022-09-28T12:08:15.638Z,12.49
2022-09-28T12:10:55.869Z,12.47
2022-09-28T12:13:22.830Z,12.43
2022-09-28T12:15:42.217Z,12.41
2022-09-28T12:17:56.074Z,12.41
2022-09-28T12:20:07.306Z,12.40
2022-09-28T12:22:19.090Z,12.42
2022-09-28T12:24:29.765Z,12.42
2022-09-28T12:26:41.180Z,12.41
2022-09-28T12:28:50.320Z,12.42
2022-09-28T12:30:56.331Z,12.43
2022-09-28T12:33:05.530Z,12.44
2022-09-28T12:35:15.085Z,12.41
2022-09-28T12:37:33.563Z,12.36
2022-09-28T12:39:59.365Z,12.32
2022-09-28T12:42:17.611Z,12.23
2022-09-28T12:44:44.035Z,12.00
2022-09-28T12:47:19.268Z,11.55
2022-09-28T12:50:36.314Z,11.43
2022-09-28T12:52:00.226Z,11.17
2022-09-28T12:54:15.519Z,11.06
2022-09-28T12:56:31.200Z,11.02
2022-09-28T12:59:00.146Z,10.86
2022-09-28T13:01:19.472Z,10.75
2022-09-28T13:03:55.114Z,10.68
2022-09-28T13:06:20.044Z,10.58
2022-09-28T13:08:33.594Z,10.52
2022-09-28T13:10:43.231Z,10.45
2022-09-28T13:13:01.878Z,10.40
2022-09-28T13:15:34.458Z,10.35
2022-09-28T13:17:50.761Z,10.32
2022-09-28T13:20:00.448Z,10.30
2022-09-28T13:22:22.326Z,10.35
2022-09-28T13:24:33.374Z,10.38
2022-09-28T13:26:42.151Z,10.42
2022-09-28T13:28:48.566Z,10.47
2022-09-28T13:30:54.051Z,10.50
2022-09-28T13:33:03.189Z,10.50
2022-09-28T13:35:07.977Z,10.51
2022-09-28T13:37:25.934Z,10.54
2022-09-28T13:39:48.951Z,10.57
2022-09-28T13:41:54.926Z,10.60
2022-09-28T13:44:33.218Z,10.62
2022-09-28T13:46:46.150Z,10.64
2022-09-28T13:49:03.518Z,10.69
2022-09-28T13:51:22.829Z,10.78
2022-09-28T13:53:37.227Z,10.92
2022-09-28T13:55:55.096Z,11.07
2022-09-28T13:58:04.863Z,11.23
2022-09-28T14:00:22.050Z,11.30
2022-09-28T14:02:37.037Z,11.32
2022-09-28T14:04:57.743Z,11.29
2022-09-28T14:07:11.862Z,11.11
2022-09-28T14:09:47.713Z,11.09
2022-09-28T14:12:00.129Z,10.95
2022-09-28T14:14:16.301Z,10.69
2022-09-28T14:16:26.973Z,10.63
2022-09-28T14:18:33.499Z,10.61
2022-09-28T14:20:37.900Z,10.53
2022-09-28T14:22:58.073Z,10.49
2022-09-28T14:25:11.569Z,10.46
2022-09-28T14:27:33.299Z,10.48
2022-09-28T14:29:38.566Z,10.53
2022-09-28T14:31:45.592Z,10.58
2022-09-28T14:33:58.838Z,10.64
2022-09-28T14:36:05.179Z,10.66
2022-09-28T14:38:34.146Z,10.64
2022-09-28T14:41:18.031Z,10.54
2022-09-28T14:43:26.113Z,10.44
2022-09-28T14:45:38.864Z,10.43
2022-09-28T14:47:45.731Z,10.42
2022-09-28T14:50:00.951Z,10.39
2022-09-28T14:52:05.859Z,10.34
2022-09-28T14:54:19.584Z,10.33
2022-09-28T14:56:23.627Z,10.35
2022-09-28T14:58:30.432Z,10.39
2022-09-28T15:00:34.634Z,10.41
2022-09-28T15:02:40.102Z,10.47
2022-09-28T15:04:50.046Z,10.49
2022-09-28T15:06:55.528Z,10.54
2022-09-28T15:08:59.414Z,10.49
2022-09-28T15:11:03.429Z,10.47
2022-09-28T15:13:20.231Z,10.50
2022-09-28T15:15:32.350Z,10.62
2022-09-28T15:17:40.059Z,10.78
2022-09-28T15:19:53.521Z,10.91
2022-09-28T15:21:57.140Z,10.98
2022-09-28T15:24:00.967Z,10.99
2022-09-28T15:26:08.704Z,10.98
2022-09-28T15:28:22.489Z,10.91
2022-09-28T15:30:29.674Z,10.88
2022-09-28T15:32:33.646Z,10.88
2022-09-28T15:34:53.012Z,10.87
2022-09-28T15:36:59.062Z,10.83
2022-09-28T15:39:06.958Z,10.82
2022-09-28T15:41:11.378Z,10.81
2022-09-28T15:43:27.289Z,10.83
2022-09-28T15:45:38.631Z,10.85
2022-09-28T15:47:45.241Z,10.85
2022-09-28T15:49:58.968Z,10.86
2022-09-28T15:52:04.681Z,10.83
2022-09-28T15:54:19.830Z,10.80
2022-09-28T15:56:24.427Z,10.73
2022-09-28T15:58:29.187Z,10.66
2022-09-28T16:00:33.403Z,10.64
2022-09-28T16:02:37.677Z,10.61
2022-09-28T16:04:50.786Z,10.62
2022-09-28T16:07:26.175Z,10.63
2022-09-28T16:09:40.235Z,10.61
2022-09-28T16:11:44.846Z,10.55
2022-09-28T16:14:04.673Z,10.52
2022-09-28T16:16:16.415Z,10.46
2022-09-28T16:18:23.829Z,10.44
2022-09-28T16:20:32.209Z,10.43
2022-09-28T16:22:37.406Z,10.42
2022-09-28T16:24:41.987Z,10.42
2022-09-28T16:26:46.535Z,10.41
2022-09-28T16:28:52.328Z,10.39
2022-09-28T16:31:02.477Z,10.36
2022-09-28T16:33:07.660Z,10.35
2022-09-28T16:35:31.115Z,10.35
2022-09-28T16:37:35.229Z,10.40
2022-09-28T16:39:40.474Z,10.40
2022-09-28T16:41:48.856Z,10.43
2022-09-28T16:43:58.395Z,10.44
2022-09-28T16:46:09.743Z,10.44
2022-09-28T16:48:20.779Z,10.43
2022-09-28T16:50:25.672Z,10.42
2022-09-28T16:52:43.195Z,10.43
2022-09-28T16:55:22.794Z,10.44
2022-09-28T16:57:29.394Z,10.46
2022-09-28T16:59:33.802Z,10.46
2022-09-28T17:01:42.604Z,10.45
2022-09-28T17:03:47.860Z,10.44
2022-09-28T17:05:53.162Z,10.46
2022-09-28T17:08:02.155Z,10.45
2022-09-28T17:10:19.580Z,10.46
2022-09-28T17:12:30.450Z,10.49
2022-09-28T17:14:34.434Z,10.51
2022-09-28T17:19:04.420Z,10.55
2022-09-28T17:21:13.978Z,10.56
2022-09-28T17:25:24.606Z,10.58
2022-09-28T17:27:28.581Z,10.58
2022-09-28T17:29:33.735Z,10.60
2022-09-28T17:31:37.617Z,10.60
2022-09-28T17:33:41.489Z,10.62
2022-09-28T17:35:46.226Z,10.60
2022-09-28T17:37:49.998Z,10.61
2022-09-28T17:39:53.647Z,10.61
2022-09-28T17:41:59.115Z,10.62
2022-09-28T17:44:04.233Z,10.63
2022-09-28T17:46:19.268Z,10.61
2022-09-28T17:48:23.818Z,10.61
2022-09-28T17:50:29.990Z,10.60
2022-09-28T17:52:33.917Z,10.59
2022-09-28T17:54:37.598Z,10.61
2022-09-28T17:56:43.005Z,10.60
2022-09-28T17:58:49.066Z,10.60
2022-09-28T18:00:53.898Z,10.58
2022-09-28T18:02:59.366Z,10.56
2022-09-28T18:05:03.795Z,10.54
2022-09-28T18:07:07.835Z,10.52
2022-09-28T18:09:16.957Z,10.49
2022-09-28T18:11:20.885Z,10.48
2022-09-28T18:13:25.214Z,10.47
2022-09-28T18:15:30.651Z,10.49
2022-09-28T18:17:34.427Z,10.48
2022-09-28T18:19:38.020Z,10.48
2022-09-28T18:21:41.903Z,10.49
2022-09-28T18:23:45.840Z,10.49
2022-09-28T18:25:49.940Z,10.49
2022-09-28T18:27:57.610Z,10.47
2022-09-28T18:30:01.891Z,10.44
2022-09-28T18:32:07.271Z,10.40
2022-09-28T18:34:13.983Z,10.38
2022-09-28T18:36:17.770Z,10.35
2022-09-28T18:38:23.111Z,10.33
2022-09-28T18:40:27.376Z,10.32
2022-09-28T18:42:31.832Z,10.33
2022-09-28T18:44:35.581Z,10.32
2022-09-28T18:46:40.105Z,10.32
2022-09-28T18:48:45.556Z,10.29
2022-09-28T18:50:50.452Z,10.28
2022-09-28T18:52:57.006Z,10.23
2022-09-28T18:55:02.268Z,10.20
2022-09-28T18:57:05.992Z,10.17
2022-09-28T18:59:12.333Z,10.13
2022-09-28T19:01:34.746Z,10.08
2022-09-28T19:03:39.488Z,10.05
2022-09-28T19:05:46.572Z,10.04
2022-09-28T19:07:50.592Z,10.02
2022-09-28T19:09:54.817Z,10.00
2022-09-28T19:11:58.731Z,9.97
2022-09-28T19:14:04.818Z,9.95
2022-09-28T19:16:10.186Z,9.94
2022-09-28T19:18:14.257Z,9.92
2022-09-28T19:20:19.029Z,9.89
2022-09-28T19:22:24.542Z,9.88
2022-09-28T19:24:28.892Z,9.86
2022-09-28T19:26:35.074Z,9.83
2022-09-28T19:28:39.470Z,9.81
2022-09-28T19:30:43.425Z,9.80
2022-09-28T19:32:47.966Z,9.77
2022-09-28T19:34:51.946Z,9.77
2022-09-28T19:36:55.827Z,9.76
2022-09-28T19:39:03.533Z,9.73
2022-09-28T19:41:11.057Z,9.73
2022-09-28T19:43:15.232Z,9.71
2022-09-28T19:45:19.508Z,9.69
2022-09-28T19:47:23.502Z,9.67
2022-09-28T19:49:33.749Z,9.64
2022-09-28T19:51:46.989Z,9.60
2022-09-28T19:54:05.341Z,9.58
2022-09-28T19:56:09.195Z,9.56
2022-09-28T19:58:13.432Z,9.55
2022-09-28T20:00:17.832Z,9.53
2022-09-28T20:02:22.339Z,9.51
2022-09-28T20:04:26.368Z,9.49
2022-09-28T20:06:30.667Z,9.45
2022-09-28T20:08:34.347Z,9.40
2022-09-28T20:10:40.146Z,9.36
2022-09-28T20:12:44.208Z,9.33
2022-09-28T20:14:48.058Z,9.29
2022-09-28T20:16:52.324Z,9.26
2022-09-28T20:19:03.362Z,9.24
2022-09-28T20:21:09.791Z,9.18
2022-09-28T20:23:14.139Z,9.13
2022-09-28T20:25:18.511Z,9.12
2022-09-28T20:27:26.430Z,9.11
2022-09-28T20:29:31.893Z,9.09
2022-09-28T20:31:37.780Z,9.09
2022-09-28T20:33:43.048Z,9.07
2022-09-28T20:35:47.370Z,9.07
2022-09-28T20:37:51.259Z,9.06
2022-09-28T20:39:55.667Z,9.07
2022-09-28T20:42:00.990Z,9.06
2022-09-28T20:44:07.715Z,9.07
2022-09-28T20:46:13.065Z,9.08
2022-09-28T20:48:17.143Z,9.08
2022-09-28T20:50:22.004Z,9.08
2022-09-28T20:52:27.235Z,9.07
2022-09-28T20:54:31.298Z,9.04
2022-09-28T20:56:38.417Z,9.02
2022-09-28T20:58:42.855Z,9.01
2022-09-28T21:00:48.561Z,8.98
2022-09-28T21:02:55.317Z,8.97
2022-09-28T21:04:59.400Z,8.98
2022-09-28T21:07:03.075Z,8.99
2022-09-28T21:09:08.655Z,9.00
2022-09-28T21:11:12.793Z,8.97
2022-09-28T21:13:16.866Z,8.98
2022-09-28T21:15:20.525Z,8.98
2022-09-28T21:17:26.135Z,8.99
2022-09-28T21:19:30.149Z,8.96
2022-09-28T21:21:33.944Z,8.94
2022-09-28T21:23:38.275Z,8.92
2022-09-28T21:25:42.331Z,8.93
2022-09-28T21:27:46.217Z,8.91
2022-09-28T21:29:49.976Z,8.92
2022-09-28T21:31:53.530Z,8.93
2022-09-28T21:33:59.272Z,8.93
2022-09-28T21:36:05.058Z,8.91
2022-09-28T21:38:08.623Z,8.91
2022-09-28T21:40:12.616Z,8.91
2022-09-28T21:42:16.346Z,8.91
2022-09-28T21:44:20.296Z,8.91
2022-09-28T21:46:24.974Z,8.89
2022-09-28T21:48:31.084Z,8.89
2022-09-28T21:50:36.245Z,8.88
2022-09-28T21:52:40.299Z,8.87
2022-09-28T21:54:43.907Z,8.85
2022-09-28T21:56:47.906Z,8.85
2022-09-28T21:58:52.367Z,8.84
2022-09-28T22:01:03.063Z,8.80
2022-09-28T22:03:07.200Z,8.78
2022-09-28T22:05:12.621Z,8.77
2022-09-28T22:07:17.916Z,8.75
2022-09-28T22:09:21.766Z,8.73
2022-09-28T22:11:27.121Z,8.73
2022-09-28T22:13:31.883Z,8.69
2022-09-28T22:15:35.961Z,8.69
2022-09-28T22:17:39.808Z,8.69
2022-09-28T22:19:43.533Z,8.69
2022-09-28T22:21:47.520Z,8.69
2022-09-28T22:23:53.220Z,8.68
2022-09-28T22:26:01.929Z,8.67
2022-09-28T22:28:05.817Z,8.64
2022-09-28T22:30:11.088Z,8.64
2022-09-28T22:32:14.880Z,8.61
2022-09-28T22:34:18.769Z,8.58
2022-09-28T22:36:22.845Z,8.56
2022-09-28T22:38:27.190Z,8.56
2022-09-28T22:40:32.538Z,8.58
2022-09-28T22:42:36.124Z,8.55
2022-09-28T22:44:40.796Z,8.55
2022-09-28T22:46:44.595Z,8.53
2022-09-28T22:48:49.126Z,8.53
2022-09-28T22:50:53.109Z,8.53
2022-09-28T22:52:57.141Z,8.54
2022-09-28T22:55:00.744Z,8.53
2022-09-28T22:57:06.021Z,8.53
2022-09-28T22:59:09.704Z,8.52
2022-09-28T23:01:15.865Z,8.52
2022-09-28T23:03:19.838Z,8.54
2022-09-28T23:05:23.743Z,8.53
2022-09-28T23:07:27.177Z,8.53
2022-09-28T23:09:30.862Z,8.51
2022-09-28T23:11:34.812Z,8.53
2022-09-28T23:13:40.234Z,8.53
2022-09-28T23:15:44.025Z,8.51
2022-09-28T23:17:47.720Z,8.53
2022-09-28T23:19:51.335Z,8.52
2022-09-28T23:21:55.467Z,8.52
2022-09-28T23:24:01.378Z,8.52
2022-09-28T23:26:12.338Z,8.52
2022-09-28T23:28:16.245Z,8.50
2022-09-28T23:30:25.038Z,8.50
2022-09-28T23:32:32.036Z,8.51
2022-09-28T23:34:36.045Z,8.50
2022-09-28T23:36:39.822Z,8.50
2022-09-28T23:38:43.624Z,8.50
2022-09-28T23:40:48.172Z,8.49
2022-09-28T23:42:51.957Z,8.48
2022-09-28T23:44:55.764Z,8.48
2022-09-28T23:47:01.216Z,8.48
2022-09-28T23:49:04.941Z,8.45
2022-09-28T23:51:09.241Z,8.43
2022-09-28T23:53:14.550Z,8.42
2022-09-28T23:55:19.223Z,8.42
2022-09-28T23:57:23.165Z,8.41
2022-09-28T23:59:27.165Z,8.39
